createdAt,value
2023-05-19T00:01:31.178Z,100617.03
2023-05-19T00:04:33.861Z,100618.31
2023-05-19T00:07:38.747Z,100611.97
2023-05-19T00:10:41.341Z,100611.44
2023-05-19T00:13:48.359Z,100606.13
2023-05-19T00:16:50.775Z,100602.53
2023-05-19T00:19:54.866Z,100613.03
2023-05-19T00:22:58.068Z,100598.81
2023-05-19T00:25:59.896Z,100612.66
2023-05-19T00:29:02.515Z,100598.81
2023-05-19T00:32:05.178Z,100604.38
2023-05-19T00:35:08.422Z,100604.06
2023-05-19T00:38:11.588Z,100597.06
2023-05-19T00:41:14.608Z,100587.56
2023-05-19T00:44:16.426Z,100584.38
2023-05-19T00:47:18.474Z,100588.03
2023-05-19T00:50:22.838Z,100594.19
2023-05-19T00:53:26.386Z,100588.94
2023-05-19T00:56:28.603Z,100597.84
2023-05-19T00:59:30.589Z,100586.59
2023-05-19T01:02:32.763Z,100593.09
2023-05-19T01:05:34.726Z,100588.78
2023-05-19T01:08:38.346Z,100589.13
2023-05-19T01:11:40.438Z,100584.53
2023-05-19T01:14:42.625Z,100585.97
2023-05-19T01:17:50.315Z,100590.69
2023-05-19T01:21:03.794Z,100576.78
2023-05-19T01:24:23.397Z,100584.44
2023-05-19T01:27:51.234Z,100582.09
2023-05-19T01:30:55.799Z,100587.41
2023-05-19T01:33:59.443Z,100592.22
2023-05-19T01:37:01.852Z,100590.53
2023-05-19T01:40:04.220Z,100600.88
2023-05-19T01:43:08.071Z,100593.22
2023-05-19T01:46:12.136Z,100590.53
2023-05-19T01:49:14.568Z,100591.38
2023-05-19T01:52:16.421Z,100586.50
2023-05-19T01:55:19.744Z,100585.13
2023-05-19T01:58:31.321Z,100581.69
2023-05-19T02:01:41.553Z,100573.97
2023-05-19T02:04:50.977Z,100577.84
2023-05-19T02:07:58.728Z,100579.34
2023-05-19T02:11:09.912Z,100585.66
2023-05-19T02:14:16.192Z,100573.97
2023-05-19T02:17:20.872Z,100584.00
2023-05-19T02:20:22.793Z,100575.84
2023-05-19T02:23:25.409Z,100568.97
2023-05-19T02:26:27.352Z,100577.84
2023-05-19T02:29:30.147Z,100572.28
2023-05-19T02:32:33.516Z,100573.28
2023-05-19T02:35:40.894Z,100567.72
2023-05-19T02:38:42.750Z,100568.72
2023-05-19T02:41:45.123Z,100575.38
2023-05-19T02:44:47.014Z,100577.06
2023-05-19T02:47:50.365Z,100582.53
2023-05-19T02:50:53.129Z,100588.84
2023-05-19T02:53:54.928Z,100587.03
2023-05-19T02:56:57.453Z,100570.47
2023-05-19T03:00:00.297Z,100593.66
2023-05-19T03:03:04.729Z,100589.31
2023-05-19T03:06:08.834Z,100586.66
2023-05-19T03:09:10.691Z,100590.97
2023-05-19T03:12:13.151Z,100586.81
2023-05-19T03:15:15.180Z,100587.13
2023-05-19T03:18:18.453Z,100546.25
2023-05-19T03:21:21.038Z,100589.38
2023-05-19T03:24:22.947Z,100572.66
2023-05-19T03:27:24.812Z,100598.03
2023-05-19T03:30:27.027Z,100588.25
2023-05-19T03:33:30.587Z,100588.25
2023-05-19T03:36:32.523Z,100589.63
2023-05-19T03:39:34.354Z,100585.28
2023-05-19T03:42:36.224Z,100584.44
2023-05-19T03:45:38.123Z,100590.31
2023-05-19T03:48:42.318Z,100591.13
2023-05-19T03:51:44.431Z,100583.53
2023-05-19T03:54:46.264Z,100579.72
2023-05-19T03:57:49.013Z,100575.94
2023-05-19T04:00:51.135Z,100589.47
2023-05-19T04:03:55.448Z,100581.47
2023-05-19T04:06:58.002Z,100597.38
2023-05-19T04:10:00.066Z,100581.69
2023-05-19T04:13:01.935Z,100598.69
2023-05-19T04:16:04.612Z,100602.16
2023-05-19T04:19:07.996Z,100597.84
2023-05-19T04:22:09.884Z,100600.78
2023-05-19T04:25:12.049Z,100600.50
2023-05-19T04:28:13.935Z,100605.72
2023-05-19T04:31:15.888Z,100612.97
2023-05-19T04:34:20.134Z,100610.97
2023-05-19T04:37:22.344Z,100615.59
2023-05-19T04:40:24.299Z,100625.59
2023-05-19T04:43:28.385Z,100611.44
2023-05-19T04:46:30.478Z,100625.34
2023-05-19T04:49:38.779Z,100623.06
2023-05-19T04:52:41.894Z,100626.25
2023-05-19T04:55:44.219Z,100624.97
2023-05-19T04:58:46.840Z,100630.06
2023-05-19T05:01:48.794Z,100634.78
2023-05-19T05:04:54.640Z,100619.34
2023-05-19T05:07:56.491Z,100617.88
2023-05-19T05:10:59.555Z,100626.78
2023-05-19T05:14:01.973Z,100624.63
2023-05-19T05:17:05.436Z,100633.34
2023-05-19T05:20:11.534Z,100623.34
2023-05-19T05:23:17.029Z,100632.72
2023-05-19T05:26:23.310Z,100637.06
2023-05-19T05:29:25.284Z,100639.28
2023-05-19T05:32:27.257Z,100642.66
2023-05-19T05:35:30.845Z,100641.84
2023-05-19T05:38:33.079Z,100627.31
2023-05-19T05:41:37.628Z,100645.34
2023-05-19T05:44:39.703Z,100647.69
2023-05-19T05:47:42.225Z,100633.84
2023-05-19T05:50:46.085Z,100637.19
2023-05-19T05:53:52.550Z,100643.19
2023-05-19T05:56:55.148Z,100630.84
2023-05-19T05:59:57.767Z,100638.69
2023-05-19T06:02:59.985Z,100583.44
2023-05-19T06:06:03.526Z,100588.34
2023-05-19T06:09:05.758Z,100578.75
2023-05-19T06:12:08.188Z,100564.00
2023-05-19T06:15:10.972Z,100593.88
2023-05-19T06:18:12.826Z,100574.94
2023-05-19T06:21:17.700Z,100578.19
2023-05-19T06:24:19.545Z,100585.41
2023-05-19T06:27:21.621Z,100602.34
2023-05-19T06:30:23.435Z,100628.56
2023-05-19T06:33:28.847Z,100664.06
2023-05-19T06:36:32.497Z,100667.22
2023-05-19T06:39:34.422Z,100666.22
2023-05-19T06:42:36.321Z,100646.44
2023-05-19T06:45:38.123Z,100664.50
2023-05-19T06:48:40.010Z,100665.31
2023-05-19T06:51:43.299Z,100671.22
2023-05-19T06:54:45.198Z,100675.81
2023-05-19T06:57:47.023Z,100668.47
2023-05-19T07:00:48.950Z,100666.59
2023-05-19T07:03:50.907Z,100653.34
2023-05-19T07:06:55.089Z,100668.34
2023-05-19T07:09:57.014Z,100643.81
2023-05-19T07:12:59.518Z,100666.34
2023-05-19T07:16:01.525Z,100661.66
2023-05-19T07:19:03.503Z,100662.34
2023-05-19T07:22:06.844Z,100667.03
2023-05-19T07:25:10.122Z,100664.19
2023-05-19T07:28:12.005Z,100653.44
2023-05-19T07:31:14.500Z,100651.78
2023-05-19T07:34:16.572Z,100649.81
2023-05-19T07:37:19.791Z,100647.22
2023-05-19T07:40:21.741Z,100660.59
2023-05-19T07:43:23.590Z,100656.47
2023-05-19T07:46:26.670Z,100650.47
2023-05-19T07:49:28.677Z,100651.47
2023-05-19T07:52:31.916Z,100642.53
2023-05-19T07:55:34.405Z,100643.50
2023-05-19T07:58:36.279Z,100645.81
2023-05-19T08:01:38.451Z,100642.25
2023-05-19T08:04:40.362Z,100651.09
2023-05-19T08:07:43.786Z,100628.81
2023-05-19T08:10:46.492Z,100641.69
2023-05-19T08:13:51.123Z,100629.84
2023-05-19T08:16:53.402Z,100637.00
2023-05-19T08:19:55.397Z,100633.72
2023-05-19T08:22:58.776Z,100631.34
2023-05-19T08:26:00.773Z,100628.06
2023-05-19T08:29:03.268Z,100637.63
2023-05-19T08:32:05.788Z,100635.00
2023-05-19T08:35:08.784Z,100636.38
2023-05-19T08:38:12.715Z,100628.44
2023-05-19T08:41:14.569Z,100619.53
2023-05-19T08:44:19.026Z,100642.63
2023-05-19T08:47:21.227Z,100627.06
2023-05-19T08:50:30.703Z,100623.63
2023-05-19T08:53:37.922Z,100632.44
2023-05-19T08:56:40.525Z,100625.50
2023-05-19T08:59:43.883Z,100629.09
2023-05-19T09:02:59.803Z,100615.28
2023-05-19T09:06:14.502Z,100631.59
2023-05-19T09:09:17.743Z,100633.59
2023-05-19T09:12:21.109Z,100617.81
2023-05-19T09:15:27.204Z,100621.66
2023-05-19T09:18:29.796Z,100629.59
2023-05-19T09:21:32.569Z,100621.75
2023-05-19T09:24:36.172Z,100614.50
2023-05-19T09:27:38.198Z,100626.19
2023-05-19T09:30:40.077Z,100608.69
2023-05-19T09:33:45.860Z,100617.06
2023-05-19T09:36:54.719Z,100624.72
2023-05-19T09:39:58.485Z,100620.94
2023-05-19T09:43:07.921Z,100625.94
2023-05-19T09:46:14.720Z,100614.19
2023-05-19T09:49:21.730Z,100613.53
2023-05-19T09:52:23.616Z,100601.19
2023-05-19T09:55:29.096Z,100610.81
2023-05-19T09:58:31.990Z,100615.91
2023-05-19T10:01:36.419Z,100614.78
2023-05-19T10:04:38.710Z,100586.63
2023-05-19T10:07:41.419Z,100606.09
2023-05-19T10:10:45.908Z,100588.56
2023-05-19T10:13:51.334Z,100596.97
2023-05-19T10:16:54.752Z,100573.50
2023-05-19T10:19:58.824Z,100585.16
2023-05-19T10:23:00.837Z,100582.50
2023-05-19T10:26:06.908Z,100571.97
2023-05-19T10:29:09.076Z,100577.06
2023-05-19T10:32:23.358Z,100569.34
2023-05-19T10:36:00.771Z,100570.53
2023-05-19T10:39:06.603Z,100569.75
2023-05-19T10:42:16.130Z,100578.28
2023-05-19T10:45:21.143Z,100573.50
2023-05-19T10:48:24.190Z,100564.97
2023-05-19T10:51:32.599Z,100539.81
2023-05-19T10:54:46.280Z,100571.03
2023-05-19T10:57:58.612Z,100563.97
2023-05-19T11:01:01.652Z,100553.06
2023-05-19T11:04:09.167Z,100562.81
2023-05-19T11:07:11.118Z,100549.69
2023-05-19T11:10:14.092Z,100552.56
2023-05-19T11:13:24.011Z,100548.31
2023-05-19T11:16:30.138Z,100530.06
2023-05-19T11:19:34.641Z,100551.16
2023-05-19T11:22:37.146Z,100542.91
2023-05-19T11:25:46.957Z,100536.81
2023-05-19T11:28:52.120Z,100540.78
2023-05-19T11:31:54.597Z,100551.34
2023-05-19T11:34:57.962Z,100546.59
2023-05-19T11:37:59.978Z,100548.06
2023-05-19T11:41:01.996Z,100531.25
2023-05-19T11:44:10.134Z,100541.88
2023-05-19T11:47:13.437Z,100552.53
2023-05-19T11:50:16.680Z,100542.53
2023-05-19T11:53:19.919Z,100540.13
2023-05-19T11:56:22.167Z,100530.53
2023-05-19T11:59:33.492Z,100541.50
2023-05-19T12:02:37.934Z,100547.28
2023-05-19T12:05:46.386Z,100549.06
2023-05-19T12:08:51.404Z,100546.69
2023-05-19T12:11:55.392Z,100533.00
2023-05-19T12:14:59.105Z,100537.59
2023-05-19T12:18:02.495Z,100533.91
2023-05-19T12:21:05.346Z,100531.88
2023-05-19T12:24:08.620Z,100525.44
2023-05-19T12:27:18.521Z,100456.53
2023-05-19T12:30:26.759Z,100520.44
2023-05-19T12:33:28.729Z,100503.66
2023-05-19T12:36:32.350Z,100518.81
2023-05-19T12:39:34.350Z,100514.63
2023-05-19T12:42:37.901Z,100500.34
2023-05-19T12:45:42.676Z,100501.78
2023-05-19T12:48:45.713Z,100486.41
2023-05-19T12:51:52.437Z,100498.03
2023-05-19T12:54:58.786Z,100477.25
2023-05-19T12:58:07.197Z,100468.34
2023-05-19T13:01:16.356Z,100478.25
2023-05-19T13:04:18.660Z,100482.13
2023-05-19T13:07:20.669Z,100461.91
2023-05-19T13:10:23.096Z,100469.22
2023-05-19T13:13:25.029Z,100481.34
2023-05-19T13:16:29.490Z,100474.16
2023-05-19T13:19:31.558Z,100487.06
2023-05-19T13:22:33.547Z,100473.38
2023-05-19T13:25:36.175Z,100466.50
2023-05-19T13:28:37.996Z,100456.97
2023-05-19T13:31:42.026Z,100447.34
2023-05-19T13:34:43.916Z,100442.03
2023-05-19T13:37:46.385Z,100452.78
2023-05-19T13:40:48.598Z,100454.00
2023-05-19T13:43:50.494Z,100450.63
2023-05-19T13:46:53.967Z,100452.81
2023-05-19T13:49:55.992Z,100439.88
2023-05-19T13:52:57.952Z,100438.72
2023-05-19T13:56:00.965Z,100432.41
2023-05-19T13:59:04.128Z,100428.72
2023-05-19T14:02:08.263Z,100429.94
2023-05-19T14:05:10.482Z,100423.19
2023-05-19T14:08:12.347Z,100432.41
2023-05-19T14:11:17.975Z,100433.50
2023-05-19T14:14:19.822Z,100446.16
2023-05-19T14:17:23.054Z,100442.03
2023-05-19T14:20:25.892Z,100439.13
2023-05-19T14:23:30.450Z,100424.91
2023-05-19T14:26:32.400Z,100433.13
2023-05-19T14:29:34.667Z,100425.19
2023-05-19T14:32:38.965Z,100420.56
2023-05-19T14:35:41.097Z,100421.63
2023-05-19T14:38:42.949Z,100428.34
2023-05-19T14:41:45.432Z,100426.50
2023-05-19T14:44:50.367Z,100423.75
2023-05-19T14:47:53.854Z,100426.97
2023-05-19T14:50:55.956Z,100417.53
2023-05-19T14:53:57.863Z,100417.13
2023-05-19T14:57:01.636Z,100415.50
2023-05-19T15:00:04.192Z,100416.38
2023-05-19T15:03:07.877Z,100411.28
2023-05-19T15:06:10.859Z,100410.81
2023-05-19T15:09:14.672Z,100413.47
2023-05-19T15:12:17.459Z,100417.31
2023-05-19T15:15:19.464Z,100417.22
2023-05-19T15:18:22.772Z,100412.66
2023-05-19T15:21:24.671Z,100417.22
2023-05-19T15:24:27.262Z,100419.06
2023-05-19T15:27:29.492Z,100414.09
2023-05-19T15:30:31.358Z,100415.75
2023-05-19T15:33:34.667Z,100410.09
2023-05-19T15:36:36.700Z,100415.28
2023-05-19T15:39:38.798Z,100411.94
2023-05-19T15:42:41.332Z,100414.66
2023-05-19T15:45:43.225Z,100412.00
2023-05-19T15:48:46.547Z,100406.22
2023-05-19T15:51:48.388Z,100405.78
2023-05-19T15:54:50.250Z,100411.59
2023-05-19T15:57:52.305Z,100413.44
2023-05-19T16:00:54.282Z,100407.66
2023-05-19T16:03:57.681Z,100408.28
2023-05-19T16:06:59.653Z,100404.97
2023-05-19T16:10:01.684Z,100411.63
2023-05-19T16:13:04.314Z,100385.25
2023-05-19T16:16:07.018Z,100400.75
2023-05-19T16:19:10.521Z,100392.50
2023-05-19T16:22:13.204Z,100413.19
2023-05-19T16:25:15.241Z,100414.88
2023-05-19T16:28:17.187Z,100415.78
2023-05-19T16:31:19.253Z,100407.72
2023-05-19T16:34:22.428Z,100420.63
2023-05-19T16:37:25.188Z,100414.94
2023-05-19T16:40:29.455Z,100414.94
2023-05-19T16:43:34.026Z,100413.34
2023-05-19T16:46:35.972Z,100410.25
2023-05-19T16:49:40.889Z,100399.59
2023-05-19T16:52:42.701Z,100400.81
2023-05-19T16:55:45.098Z,100392.63
2023-05-19T16:58:47.105Z,100407.56
2023-05-19T17:01:49.139Z,100398.88
2023-05-19T17:04:52.545Z,100410.25
2023-05-19T17:07:55.169Z,100410.66
2023-05-19T17:10:57.287Z,100403.72
2023-05-19T17:13:59.555Z,100394.81
2023-05-19T17:17:01.639Z,100389.44
2023-05-19T17:20:07.117Z,100407.31
2023-05-19T17:23:09.002Z,100393.66
2023-05-19T17:26:10.831Z,100415.59
2023-05-19T17:29:13.037Z,100409.94
2023-05-19T17:32:14.837Z,100419.06
2023-05-19T17:35:18.556Z,100416.44
2023-05-19T17:38:20.996Z,100416.44
2023-05-19T17:41:22.914Z,100422.66
2023-05-19T17:44:25.304Z,100433.31
2023-05-19T17:47:27.214Z,100438.94
2023-05-19T17:50:30.501Z,100428.97
2023-05-19T17:53:33.040Z,100428.19
2023-05-19T17:56:40.650Z,100442.56
2023-05-19T17:59:42.876Z,100441.44
2023-05-19T18:02:45.446Z,100426.38
2023-05-19T18:05:49.805Z,100440.69
2023-05-19T18:08:53.337Z,100446.75
2023-05-19T18:11:55.251Z,100433.81
2023-05-19T18:14:57.334Z,100439.66
2023-05-19T18:17:59.425Z,100417.91
2023-05-19T18:21:03.302Z,100433.75
2023-05-19T18:24:06.041Z,100442.19
2023-05-19T18:27:09.138Z,100445.69
2023-05-19T18:30:11.771Z,100441.59
2023-05-19T18:33:13.648Z,100444.66
2023-05-19T18:36:17.629Z,100443.09
2023-05-19T18:39:19.549Z,100450.53
2023-05-19T18:42:22.077Z,100441.03
2023-05-19T18:45:23.926Z,100451.38
2023-05-19T18:48:25.925Z,100459.28
2023-05-19T18:51:29.947Z,100453.94
2023-05-19T18:54:32.634Z,100462.31
2023-05-19T18:57:34.866Z,100452.09
2023-05-19T19:00:37.121Z,100468.50
2023-05-19T19:03:38.971Z,100450.38
2023-05-19T19:06:43.793Z,100464.56
2023-05-19T19:09:46.818Z,100459.50
2023-05-19T19:12:48.687Z,100451.19
2023-05-19T19:15:50.608Z,100471.25
2023-05-19T19:18:52.891Z,100453.72
2023-05-19T19:21:56.094Z,100472.78
2023-05-19T19:24:58.780Z,100465.94
2023-05-19T19:28:01.630Z,100475.47
2023-05-19T19:31:03.488Z,100471.75
2023-05-19T19:34:09.204Z,100486.28
2023-05-19T19:37:14.510Z,100477.41
2023-05-19T19:40:16.773Z,100478.75
2023-05-19T19:43:18.795Z,100492.59
2023-05-19T19:46:20.760Z,100485.44
2023-05-19T19:49:22.673Z,100477.78
2023-05-19T19:52:26.284Z,100486.44
2023-05-19T19:55:30.708Z,100499.78
2023-05-19T19:58:32.621Z,100492.97
2023-05-19T20:01:34.544Z,100506.63
2023-05-19T20:04:36.727Z,100526.16
2023-05-19T20:07:39.973Z,100516.25
2023-05-19T20:10:42.616Z,100518.84
2023-05-19T20:13:44.550Z,100508.44
2023-05-19T20:16:46.898Z,100514.56
2023-05-19T20:19:48.984Z,100515.75
2023-05-19T20:22:53.033Z,100516.97
2023-05-19T20:26:10.700Z,100511.91
2023-05-19T20:29:14.154Z,100509.09
2023-05-19T20:32:16.054Z,100514.94
2023-05-19T20:35:18.183Z,100509.09
2023-05-19T20:38:22.014Z,100519.09
2023-05-19T20:41:23.875Z,100524.28
2023-05-19T20:44:25.942Z,100515.59
2023-05-19T20:47:30.383Z,100510.09
2023-05-19T20:50:32.819Z,100511.75
2023-05-19T20:53:36.912Z,100505.72
2023-05-19T20:56:38.813Z,100509.91
2023-05-19T20:59:40.947Z,100504.59
2023-05-19T21:02:44.400Z,100503.44
2023-05-19T21:05:46.450Z,100505.44
2023-05-19T21:08:50.137Z,100465.28
2023-05-19T21:11:55.152Z,100505.00
2023-05-19T21:14:57.040Z,100513.81
2023-05-19T21:17:59.021Z,100503.84
2023-05-19T21:21:02.911Z,100515.34
2023-05-19T21:24:09.665Z,100518.22
2023-05-19T21:27:11.526Z,100497.19
2023-05-19T21:30:13.849Z,100516.75
2023-05-19T21:33:16.087Z,100510.72
2023-05-19T21:36:18.507Z,100511.25
2023-05-19T21:39:21.724Z,100507.91
2023-05-19T21:42:24.484Z,100510.75
2023-05-19T21:45:26.351Z,100516.44
2023-05-19T21:48:30.165Z,100512.25
2023-05-19T21:51:32.182Z,100504.41
2023-05-19T21:54:36.235Z,100504.41
2023-05-19T21:57:38.110Z,100507.44
2023-05-19T22:00:40.656Z,100492.25
2023-05-19T22:03:42.543Z,100499.59
2023-05-19T22:06:45.665Z,100488.56
2023-05-19T22:09:49.037Z,100505.09
2023-05-19T22:12:51.377Z,100492.72
2023-05-19T22:15:53.264Z,100490.22
2023-05-19T22:18:55.609Z,100486.06
2023-05-19T22:22:09.738Z,100482.91
2023-05-19T22:25:16.657Z,100473.75
2023-05-19T22:28:18.546Z,100466.75
2023-05-19T22:31:21.639Z,100464.06
2023-05-19T22:34:23.548Z,100444.38
2023-05-19T22:37:27.202Z,100455.38
2023-05-19T22:40:30.409Z,100457.88
2023-05-19T22:43:34.729Z,100454.22
2023-05-19T22:46:37.397Z,100457.25
2023-05-19T22:49:39.487Z,100440.88
2023-05-19T22:52:42.321Z,100455.91
2023-05-19T22:55:45.705Z,100451.38
2023-05-19T22:58:47.527Z,100454.94
2023-05-19T23:01:50.324Z,100469.44
2023-05-19T23:04:52.195Z,100461.78
2023-05-19T23:07:54.228Z,100460.09
2023-05-19T23:11:03.397Z,100444.91
2023-05-19T23:14:05.736Z,100438.03
2023-05-19T23:17:08.280Z,100425.56
2023-05-19T23:20:11.795Z,100432.75
2023-05-19T23:23:13.602Z,100440.25
2023-05-19T23:26:17.600Z,100442.56
2023-05-19T23:29:19.557Z,100442.56
2023-05-19T23:32:22.131Z,100446.94
2023-05-19T23:35:24.046Z,100443.22
2023-05-19T23:38:27.103Z,100437.88
2023-05-19T23:41:30.485Z,100449.56
2023-05-19T23:44:32.462Z,100443.06
2023-05-19T23:47:34.358Z,100438.88
2023-05-19T23:50:37.135Z,100427.38
2023-05-19T23:53:39.220Z,100414.03
2023-05-19T23:56:43.467Z,100428.22
2023-05-19T23:59:45.383Z,100427.69
